createdAt,value
2019-03-22T00:01:13.115Z,8.07
2019-03-22T00:03:41.478Z,7.80
2019-03-22T00:06:09.896Z,7.43
2019-03-22T00:08:38.333Z,7.30
2019-03-22T00:11:06.867Z,8.03
2019-03-22T00:13:35.242Z,8.90
2019-03-22T00:16:03.625Z,7.43
2019-03-22T00:18:32.042Z,8.37
2019-03-22T00:21:00.448Z,7.97
2019-03-22T00:23:28.815Z,7.40
2019-03-22T00:25:57.280Z,8.00
2019-03-22T00:28:25.701Z,7.33
2019-03-22T00:30:54.043Z,7.67
2019-03-22T00:33:22.645Z,7.97
2019-03-22T00:35:50.909Z,7.27
2019-03-22T00:38:19.302Z,7.50
2019-03-22T00:40:47.725Z,8.10
2019-03-22T00:43:16.096Z,7.10
2019-03-22T00:45:44.460Z,7.43
2019-03-22T00:48:12.849Z,7.60
2019-03-22T00:50:41.153Z,8.67
2019-03-22T00:53:09.596Z,7.40
2019-03-22T00:55:37.888Z,7.10
2019-03-22T00:58:06.228Z,7.77
2019-03-22T01:00:34.621Z,7.57
2019-03-22T01:03:03.048Z,7.70
2019-03-22T01:05:31.403Z,6.67
2019-03-22T01:07:59.839Z,8.20
2019-03-22T01:10:28.311Z,7.50
2019-03-22T01:12:56.896Z,6.93
2019-03-22T01:15:25.268Z,7.27
2019-03-22T01:17:53.598Z,7.47
2019-03-22T01:20:21.958Z,7.17
2019-03-22T01:22:50.409Z,7.73
2019-03-22T01:25:18.724Z,7.57
2019-03-22T01:27:47.130Z,8.07
2019-03-22T01:30:15.611Z,7.37
2019-03-22T01:32:44.049Z,7.50
2019-03-22T01:35:12.374Z,7.40
2019-03-22T01:37:40.882Z,6.70
2019-03-22T01:40:09.650Z,7.33
2019-03-22T01:42:37.987Z,7.73
2019-03-22T01:45:07.356Z,7.73
2019-03-22T01:47:35.774Z,7.23
2019-03-22T01:50:04.217Z,7.17
2019-03-22T01:52:32.619Z,7.77
2019-03-22T01:55:00.960Z,6.63
2019-03-22T01:57:29.361Z,6.60
2019-03-22T01:59:57.721Z,6.70
2019-03-22T02:02:26.061Z,6.87
2019-03-22T02:04:54.650Z,7.37
2019-03-22T02:07:23.147Z,7.87
2019-03-22T02:09:51.443Z,6.33
2019-03-22T02:12:19.934Z,7.67
2019-03-22T02:14:48.387Z,7.77
2019-03-22T02:17:16.812Z,6.57
2019-03-22T02:19:45.274Z,7.37
2019-03-22T02:22:13.629Z,6.40
2019-03-22T02:24:45.102Z,7.53
2019-03-22T02:27:13.490Z,6.57
2019-03-22T02:29:44.351Z,6.90
2019-03-22T02:32:11.927Z,7.73
2019-03-22T02:34:40.382Z,7.30
2019-03-22T02:37:08.797Z,6.97
2019-03-22T02:39:37.247Z,7.40
2019-03-22T02:42:05.639Z,7.70
2019-03-22T02:44:34.094Z,7.00
2019-03-22T02:47:02.452Z,6.80
2019-03-22T02:49:30.821Z,6.80
2019-03-22T02:51:59.283Z,6.70
2019-03-22T02:54:27.616Z,8.00
2019-03-22T02:56:55.889Z,8.50
2019-03-22T02:59:24.291Z,8.20
2019-03-22T03:01:52.666Z,7.83
2019-03-22T03:04:20.990Z,7.20
2019-03-22T03:06:49.288Z,7.80
2019-03-22T03:09:17.665Z,7.80
2019-03-22T03:11:46.088Z,6.77
2019-03-22T03:14:14.368Z,7.10
2019-03-22T03:16:43.019Z,8.00
2019-03-22T03:19:11.329Z,7.30
2019-03-22T03:21:39.884Z,6.70
2019-03-22T03:24:08.280Z,7.30
2019-03-22T03:26:36.842Z,7.70
2019-03-22T03:29:05.208Z,7.03
2019-03-22T03:31:33.675Z,7.23
2019-03-22T03:34:02.266Z,6.70
2019-03-22T03:36:30.691Z,7.03
2019-03-22T03:38:59.065Z,6.70
2019-03-22T03:41:27.445Z,6.03
2019-03-22T03:43:55.838Z,6.70
2019-03-22T03:46:24.246Z,6.50
2019-03-22T03:48:52.609Z,6.40
2019-03-22T03:51:21.036Z,6.67
2019-03-22T03:53:49.405Z,7.00
2019-03-22T03:56:17.789Z,6.93
2019-03-22T03:58:52.346Z,6.53
2019-03-22T04:01:16.253Z,6.50
2019-03-22T04:03:44.624Z,6.90
2019-03-22T04:06:13.004Z,6.40
2019-03-22T04:08:41.359Z,7.20
2019-03-22T04:11:09.773Z,6.83
2019-03-22T04:13:38.159Z,7.47
2019-03-22T04:16:06.488Z,7.10
2019-03-22T04:18:34.919Z,6.97
2019-03-22T04:21:03.313Z,7.23
2019-03-22T04:23:31.711Z,6.97
2019-03-22T04:26:00.061Z,6.60
2019-03-22T04:28:28.529Z,6.90
2019-03-22T04:30:56.893Z,6.93
2019-03-22T04:33:25.276Z,6.87
2019-03-22T04:35:53.684Z,7.00
2019-03-22T04:38:22.064Z,6.30
2019-03-22T04:40:50.448Z,6.60
2019-03-22T04:43:18.823Z,7.13
2019-03-22T04:45:47.877Z,6.43
2019-03-22T04:48:19.073Z,7.10
2019-03-22T04:50:48.745Z,6.70
2019-03-22T04:53:21.651Z,6.90
2019-03-22T04:55:51.628Z,6.70
2019-03-22T04:58:20.637Z,6.73
2019-03-22T05:00:49.705Z,7.03
2019-03-22T05:03:18.487Z,7.43
2019-03-22T05:05:47.333Z,7.00
2019-03-22T05:08:16.121Z,7.03
2019-03-22T05:10:45.011Z,7.97
2019-03-22T05:13:14.669Z,6.37
2019-03-22T05:15:43.581Z,7.53
2019-03-22T05:18:12.165Z,7.20
2019-03-22T05:20:41.799Z,7.37
2019-03-22T05:23:11.643Z,7.17
2019-03-22T05:25:40.580Z,7.40
2019-03-22T05:28:10.825Z,7.43
2019-03-22T05:31:00.843Z,7.33
2019-03-22T05:33:29.264Z,7.47
2019-03-22T05:35:57.606Z,7.40
2019-03-22T05:38:26.087Z,8.23
2019-03-22T05:40:54.507Z,8.33
2019-03-22T05:43:22.838Z,8.10
2019-03-22T05:45:51.209Z,7.60
2019-03-22T05:48:19.617Z,7.43
2019-03-22T05:50:48.070Z,7.57
2019-03-22T05:53:16.442Z,7.60
2019-03-22T05:55:44.798Z,7.50
2019-03-22T05:58:13.151Z,7.53
2019-03-22T06:00:41.554Z,8.80
2019-03-22T06:03:09.896Z,8.50
2019-03-22T06:05:38.308Z,8.10
2019-03-22T06:08:06.699Z,8.33
2019-03-22T06:10:35.086Z,8.20
2019-03-22T06:13:03.512Z,7.23
2019-03-22T06:15:31.875Z,7.77
2019-03-22T06:18:00.325Z,8.87
2019-03-22T06:20:28.682Z,7.63
2019-03-22T06:22:57.060Z,8.13
2019-03-22T06:25:26.621Z,8.07
2019-03-22T06:27:55.108Z,7.53
2019-03-22T06:30:23.455Z,7.77
2019-03-22T06:32:51.695Z,7.70
2019-03-22T06:35:28.940Z,7.43
2019-03-22T06:37:57.333Z,7.93
2019-03-22T06:40:25.821Z,8.30
2019-03-22T06:42:54.494Z,7.23
2019-03-22T06:45:22.987Z,8.10
2019-03-22T06:47:51.351Z,8.10
2019-03-22T06:50:22.571Z,7.40
2019-03-22T06:52:52.025Z,8.30
2019-03-22T06:55:20.603Z,7.97
2019-03-22T06:57:51.898Z,9.07
2019-03-22T07:00:20.301Z,9.00
2019-03-22T07:02:48.617Z,9.00
2019-03-22T07:05:17.006Z,8.20
2019-03-22T07:07:45.345Z,8.43
2019-03-22T07:10:13.830Z,7.63
2019-03-22T07:12:42.239Z,7.10
2019-03-22T07:15:10.594Z,8.73
2019-03-22T07:17:39.072Z,8.80
2019-03-22T07:20:08.250Z,7.67
2019-03-22T07:22:36.624Z,7.90
2019-03-22T07:25:05.523Z,8.87
2019-03-22T07:27:33.916Z,8.30
2019-03-22T07:30:02.432Z,9.40
2019-03-22T07:32:30.881Z,8.70
2019-03-22T07:34:59.339Z,8.50
2019-03-22T07:37:27.769Z,8.27
2019-03-22T07:39:56.178Z,8.13
2019-03-22T07:42:24.563Z,7.77
2019-03-22T07:44:52.973Z,8.63
2019-03-22T07:47:21.439Z,7.90
2019-03-22T07:49:49.886Z,7.17
2019-03-22T07:52:18.285Z,7.80
2019-03-22T07:54:46.668Z,8.50
2019-03-22T07:57:15.052Z,8.27
2019-03-22T07:59:43.432Z,7.70
2019-03-22T08:02:11.824Z,8.00
2019-03-22T08:04:40.234Z,8.20
2019-03-22T08:07:08.557Z,7.20
2019-03-22T08:09:36.955Z,7.83
2019-03-22T08:12:05.335Z,8.80
2019-03-22T08:14:33.719Z,8.20
2019-03-22T08:17:02.235Z,8.63
2019-03-22T08:19:30.648Z,8.93
2019-03-22T08:21:58.987Z,8.77
2019-03-22T08:24:27.442Z,8.60
2019-03-22T08:26:55.831Z,8.23
2019-03-22T08:29:24.202Z,7.80
2019-03-22T08:31:52.584Z,8.60
2019-03-22T08:34:21.044Z,8.87
2019-03-22T08:36:49.424Z,9.13
2019-03-22T08:39:17.817Z,8.70
2019-03-22T08:41:46.211Z,9.00
2019-03-22T08:44:14.560Z,9.10
2019-03-22T08:46:44.996Z,8.97
2019-03-22T08:49:13.086Z,9.40
2019-03-22T08:51:41.654Z,9.03
2019-03-22T08:54:09.997Z,9.40
2019-03-22T08:56:38.369Z,9.17
2019-03-22T08:59:06.798Z,8.47
2019-03-22T09:01:35.189Z,8.87
2019-03-22T09:04:03.740Z,9.50
2019-03-22T09:06:32.148Z,8.50
2019-03-22T09:09:00.493Z,8.87
2019-03-22T09:11:28.834Z,9.23
2019-03-22T09:13:57.243Z,8.87
2019-03-22T09:16:25.676Z,8.90
2019-03-22T09:18:54.001Z,9.50
2019-03-22T09:21:22.461Z,9.47
2019-03-22T09:23:50.801Z,9.20
2019-03-22T09:26:20.104Z,8.63
2019-03-22T09:28:48.502Z,8.47
2019-03-22T09:31:16.886Z,8.80
2019-03-22T09:33:45.290Z,7.93
2019-03-22T09:36:13.638Z,9.93
2019-03-22T09:38:42.138Z,8.77
2019-03-22T09:41:10.599Z,9.43
2019-03-22T09:43:39.056Z,10.10
2019-03-22T09:46:07.385Z,8.80
2019-03-22T09:48:35.833Z,9.10
2019-03-22T09:51:04.177Z,10.37
2019-03-22T09:53:32.591Z,9.87
2019-03-22T09:56:00.967Z,9.90
2019-03-22T09:58:29.354Z,9.60
2019-03-22T10:00:57.900Z,9.53
2019-03-22T10:03:26.338Z,10.90
2019-03-22T10:05:54.726Z,10.80
2019-03-22T10:08:23.229Z,10.00
2019-03-22T10:10:51.805Z,11.50
2019-03-22T10:13:20.268Z,10.67
2019-03-22T10:15:48.729Z,10.93
2019-03-22T10:18:17.201Z,11.70
2019-03-22T10:20:45.628Z,11.20
2019-03-22T10:23:14.096Z,12.17
2019-03-22T10:25:42.500Z,11.80
2019-03-22T10:28:10.872Z,12.27
2019-03-22T10:30:39.332Z,10.37
2019-03-22T10:33:07.694Z,12.00
2019-03-22T10:35:36.089Z,11.60
2019-03-22T10:38:06.316Z,11.20
2019-03-22T10:40:34.637Z,11.60
2019-03-22T10:43:02.939Z,12.67
2019-03-22T10:45:31.318Z,12.37
2019-03-22T10:47:59.793Z,11.90
2019-03-22T10:50:28.231Z,12.43
2019-03-22T10:52:56.590Z,12.10
2019-03-22T10:55:30.138Z,13.73
2019-03-22T10:57:55.619Z,10.97
2019-03-22T11:00:24.063Z,12.30
2019-03-22T11:02:52.470Z,12.30
2019-03-22T11:05:20.898Z,11.80
2019-03-22T11:07:49.342Z,12.80
2019-03-22T11:10:17.721Z,12.57
2019-03-22T11:12:46.075Z,11.90
2019-03-22T11:15:14.617Z,13.37
2019-03-22T11:17:43.072Z,13.07
2019-03-22T11:20:13.355Z,12.80
2019-03-22T11:22:41.804Z,13.07
2019-03-22T11:25:10.389Z,14.47
2019-03-22T11:27:38.879Z,15.50
2019-03-22T11:30:07.778Z,15.70
2019-03-22T11:32:36.224Z,15.07
2019-03-22T11:35:05.486Z,15.30
2019-03-22T11:37:33.998Z,13.70
2019-03-22T11:40:02.466Z,15.47
2019-03-22T11:42:30.894Z,14.80
2019-03-22T11:44:59.308Z,14.53
2019-03-22T11:47:27.683Z,13.40
2019-03-22T11:49:56.131Z,13.10
2019-03-22T11:52:24.572Z,13.83
2019-03-22T11:54:52.998Z,15.63
2019-03-22T11:57:21.408Z,13.33
2019-03-22T11:59:49.993Z,14.80
2019-03-22T12:02:22.365Z,15.40
2019-03-22T12:04:48.553Z,15.23
2019-03-22T12:07:16.989Z,15.80
2019-03-22T12:09:45.518Z,13.83
2019-03-22T12:12:13.936Z,14.73
2019-03-22T12:14:42.395Z,15.57
2019-03-22T12:17:10.798Z,16.33
2019-03-22T12:19:39.241Z,16.60
2019-03-22T12:22:07.624Z,14.70
2019-03-22T12:24:36.001Z,15.23
2019-03-22T12:27:04.461Z,14.77
2019-03-22T12:29:34.301Z,15.63
2019-03-22T12:32:02.758Z,15.90
2019-03-22T12:34:31.137Z,15.43
2019-03-22T12:36:59.472Z,15.10
2019-03-22T12:39:27.896Z,15.00
2019-03-22T12:41:56.585Z,15.90
2019-03-22T12:44:25.050Z,14.70
2019-03-22T12:46:53.402Z,16.33
2019-03-22T12:49:21.843Z,15.33
2019-03-22T12:51:50.295Z,14.73
2019-03-22T12:54:18.742Z,15.70
2019-03-22T12:56:47.225Z,15.60
2019-03-22T12:59:15.687Z,15.60
2019-03-22T13:01:44.106Z,14.97
2019-03-22T13:04:12.524Z,15.43
2019-03-22T13:06:41.044Z,14.77
2019-03-22T13:09:09.547Z,14.17
2019-03-22T13:11:37.992Z,15.07
2019-03-22T13:14:07.342Z,13.93
2019-03-22T13:16:35.744Z,13.87
2019-03-22T13:19:04.203Z,14.00
2019-03-22T13:21:32.539Z,14.20
2019-03-22T13:24:00.967Z,13.97
2019-03-22T13:26:29.353Z,15.30
2019-03-22T13:28:57.726Z,15.17
2019-03-22T13:31:26.154Z,14.77
2019-03-22T13:33:54.547Z,14.67
2019-03-22T13:36:22.914Z,14.40
2019-03-22T13:38:51.418Z,15.03
2019-03-22T13:41:19.852Z,14.40
2019-03-22T13:43:48.302Z,14.10
2019-03-22T13:46:16.756Z,14.17
2019-03-22T13:48:45.208Z,15.00
2019-03-22T13:51:13.660Z,14.87
2019-03-22T13:53:42.013Z,13.30
2019-03-22T13:56:11.163Z,14.50
2019-03-22T13:58:39.685Z,13.50
2019-03-22T14:01:08.005Z,12.93
2019-03-22T14:03:36.400Z,13.80
2019-03-22T14:06:05.085Z,12.83
2019-03-22T14:08:33.418Z,12.30
2019-03-22T14:11:04.639Z,13.13
2019-03-22T14:13:32.970Z,13.80
2019-03-22T14:16:01.861Z,13.30
2019-03-22T14:18:32.501Z,13.60
2019-03-22T14:21:00.473Z,13.50
2019-03-22T14:23:28.792Z,14.80
2019-03-22T14:25:57.224Z,15.27
2019-03-22T14:28:25.673Z,13.50
2019-03-22T14:30:54.175Z,13.20
2019-03-22T14:33:22.602Z,13.83
2019-03-22T14:35:51.225Z,13.57
2019-03-22T14:38:19.570Z,13.50
2019-03-22T14:40:50.695Z,14.47
2019-03-22T14:43:19.230Z,15.00
2019-03-22T14:45:47.598Z,14.60
2019-03-22T14:48:15.987Z,14.13
2019-03-22T14:50:44.423Z,15.30
2019-03-22T14:53:12.879Z,14.23
2019-03-22T14:55:41.286Z,16.67
2019-03-22T14:58:09.748Z,13.80
2019-03-22T15:00:38.110Z,15.60
2019-03-22T15:03:24.113Z,14.40
2019-03-22T15:05:53.175Z,14.60
2019-03-22T15:08:21.589Z,15.00
2019-03-22T15:10:49.999Z,14.83
2019-03-22T15:13:18.892Z,15.60
2019-03-22T15:15:58.021Z,17.10
2019-03-22T15:18:39.572Z,15.57
2019-03-22T15:21:38.799Z,15.30
2019-03-22T15:24:26.170Z,14.77
2019-03-22T15:27:12.261Z,14.23
2019-03-22T15:29:59.669Z,14.67
2019-03-22T15:32:53.106Z,14.27
2019-03-22T15:35:39.102Z,13.67
2019-03-22T15:38:41.689Z,14.00
2019-03-22T15:41:10.199Z,15.17
2019-03-22T15:43:38.598Z,14.90
2019-03-22T15:46:06.993Z,14.20
2019-03-22T15:48:35.339Z,13.80
2019-03-22T15:51:03.815Z,14.30
2019-03-22T15:53:32.161Z,14.40
2019-03-22T15:56:00.526Z,13.90
2019-03-22T15:58:28.881Z,13.87
2019-03-22T16:00:57.456Z,14.07
2019-03-22T16:03:25.877Z,13.40
2019-03-22T16:05:54.215Z,13.07
2019-03-22T16:08:22.674Z,13.70
2019-03-22T16:10:51.071Z,14.27
2019-03-22T16:13:19.481Z,13.77
2019-03-22T16:15:47.891Z,13.30
2019-03-22T16:18:16.252Z,13.10
2019-03-22T16:20:44.645Z,13.00
2019-03-22T16:23:13.027Z,12.97
2019-03-22T16:25:41.463Z,12.87
2019-03-22T16:28:09.881Z,11.97
2019-03-22T16:30:38.344Z,12.90
2019-03-22T16:33:06.769Z,12.27
2019-03-22T16:35:35.198Z,13.20
2019-03-22T16:38:03.563Z,12.50
2019-03-22T16:40:31.976Z,11.80
2019-03-22T16:43:00.690Z,13.27
2019-03-22T16:45:38.809Z,13.30
2019-03-22T16:48:07.275Z,12.70
2019-03-22T16:50:35.670Z,12.43
2019-03-22T16:53:04.176Z,12.57
2019-03-22T16:55:32.459Z,12.73
2019-03-22T16:58:00.957Z,13.27
2019-03-22T17:00:29.420Z,11.97
2019-03-22T17:02:57.840Z,11.97
2019-03-22T17:05:26.572Z,12.10
2019-03-22T17:07:54.950Z,13.40
2019-03-22T17:10:23.618Z,13.93
2019-03-22T17:12:52.109Z,13.70
2019-03-22T17:15:20.510Z,12.90
2019-03-22T17:17:48.885Z,13.87
2019-03-22T17:20:17.279Z,12.83
2019-03-22T17:22:45.678Z,13.00
2019-03-22T17:25:14.375Z,13.33
2019-03-22T17:27:42.810Z,12.37
2019-03-22T17:30:11.567Z,12.23
2019-03-22T17:32:39.973Z,12.33
2019-03-22T17:35:08.530Z,12.60
2019-03-22T17:37:40.098Z,12.87
2019-03-22T17:40:08.522Z,12.80
2019-03-22T17:42:37.262Z,12.50
2019-03-22T17:45:05.751Z,14.20
2019-03-22T17:47:34.208Z,14.10
2019-03-22T17:50:02.755Z,13.47
2019-03-22T17:52:32.427Z,14.10
2019-03-22T17:55:00.993Z,13.80
2019-03-22T17:57:32.215Z,14.50
2019-03-22T18:00:00.758Z,14.37
2019-03-22T18:02:29.142Z,14.70
2019-03-22T18:05:00.579Z,15.00
2019-03-22T18:07:29.089Z,15.20
2019-03-22T18:09:57.407Z,14.30
2019-03-22T18:12:26.038Z,16.20
2019-03-22T18:14:54.471Z,15.00
2019-03-22T18:17:25.912Z,15.07
2019-03-22T18:19:54.268Z,14.67
2019-03-22T18:22:22.751Z,16.70
2019-03-22T18:24:51.277Z,17.77
2019-03-22T18:27:19.729Z,18.50
2019-03-22T18:29:48.239Z,18.07
2019-03-22T18:32:16.791Z,16.07
2019-03-22T18:34:45.172Z,14.50
2019-03-22T18:37:13.927Z,13.60
2019-03-22T18:39:42.230Z,13.20
2019-03-22T18:42:13.704Z,14.40
2019-03-22T18:44:42.339Z,14.90
2019-03-22T18:47:10.778Z,17.07
2019-03-22T18:49:42.265Z,22.50
2019-03-22T18:52:11.010Z,21.97
2019-03-22T18:54:39.296Z,22.70
2019-03-22T18:57:07.656Z,19.53
2019-03-22T18:59:39.107Z,17.40
2019-03-22T19:02:07.511Z,16.57
2019-03-22T19:04:43.983Z,17.57
2019-03-22T19:07:05.928Z,17.40
2019-03-22T19:09:34.333Z,17.50
2019-03-22T19:12:02.778Z,18.47
2019-03-22T19:14:31.344Z,16.40
2019-03-22T19:17:02.518Z,18.43
2019-03-22T19:19:33.851Z,17.93
2019-03-22T19:22:02.267Z,18.20
2019-03-22T19:24:30.645Z,16.97
2019-03-22T19:26:59.082Z,16.43
2019-03-22T19:29:27.496Z,16.93
2019-03-22T19:32:00.308Z,16.63
2019-03-22T19:34:29.077Z,16.60
2019-03-22T19:36:57.561Z,15.80
2019-03-22T19:39:28.958Z,16.10
2019-03-22T19:41:57.258Z,15.53
2019-03-22T19:44:25.752Z,16.17
2019-03-22T19:46:54.170Z,14.53
2019-03-22T19:49:25.601Z,15.13
2019-03-22T19:51:54.033Z,16.03
2019-03-22T19:54:22.530Z,15.73
2019-03-22T19:56:51.048Z,15.23
2019-03-22T19:59:19.503Z,14.83
2019-03-22T20:01:50.886Z,15.70
2019-03-22T20:04:19.316Z,15.30
2019-03-22T20:06:47.712Z,15.60
2019-03-22T20:09:16.216Z,15.37
2019-03-22T20:11:44.655Z,15.80
2019-03-22T20:14:13.004Z,15.90
2019-03-22T20:16:51.067Z,15.43
2019-03-22T20:19:19.641Z,13.97
2019-03-22T20:21:47.984Z,13.93
2019-03-22T20:24:19.490Z,16.07
2019-03-22T20:26:48.191Z,14.70
2019-03-22T20:29:16.542Z,14.97
2019-03-22T20:31:44.902Z,14.50
2019-03-22T20:34:13.326Z,14.20
2019-03-22T20:36:43.736Z,14.83
2019-03-22T20:39:12.165Z,14.30
2019-03-22T20:41:40.934Z,14.40
2019-03-22T20:44:09.265Z,13.73
2019-03-22T20:46:37.617Z,14.30
2019-03-22T20:49:06.030Z,15.07
2019-03-22T20:51:34.392Z,13.67
2019-03-22T20:54:02.696Z,13.17
2019-03-22T20:56:31.205Z,14.90
2019-03-22T20:58:59.484Z,13.60
2019-03-22T21:01:27.842Z,13.57
2019-03-22T21:03:56.170Z,12.80
2019-03-22T21:06:24.759Z,12.67
2019-03-22T21:08:53.104Z,14.53
2019-03-22T21:11:24.463Z,15.03
2019-03-22T21:13:52.861Z,13.93
2019-03-22T21:16:21.373Z,14.30
2019-03-22T21:18:52.893Z,15.47
2019-03-22T21:21:21.399Z,16.00
2019-03-22T21:23:49.804Z,16.17
2019-03-22T21:26:18.149Z,16.50
2019-03-22T21:28:46.619Z,15.30
2019-03-22T21:31:15.015Z,14.87
2019-03-22T21:33:43.388Z,14.87
2019-03-22T21:36:12.157Z,13.97
2019-03-22T21:38:40.527Z,15.47
2019-03-22T21:41:09.331Z,15.03
2019-03-22T21:43:37.701Z,15.70
2019-03-22T21:46:06.120Z,15.87
2019-03-22T21:48:34.542Z,15.40
2019-03-22T21:51:02.959Z,16.33
2019-03-22T21:53:34.403Z,16.77
2019-03-22T21:56:02.782Z,16.10
2019-03-22T21:58:31.249Z,14.97
2019-03-22T22:00:59.635Z,14.70
2019-03-22T22:03:37.028Z,14.90
2019-03-22T22:06:05.405Z,15.33
2019-03-22T22:08:33.747Z,15.10
2019-03-22T22:11:02.161Z,15.07
2019-03-22T22:13:33.353Z,13.67
2019-03-22T22:16:01.897Z,14.77
2019-03-22T22:18:30.280Z,15.40
2019-03-22T22:20:58.857Z,14.53
2019-03-22T22:23:27.308Z,15.10
2019-03-22T22:25:55.866Z,14.83
2019-03-22T22:28:24.194Z,14.87
2019-03-22T22:30:52.808Z,15.10
2019-03-22T22:33:21.296Z,13.57
2019-03-22T22:35:58.268Z,15.03
2019-03-22T22:38:19.730Z,15.20
2019-03-22T22:40:48.151Z,15.77
2019-03-22T22:43:16.528Z,16.00
2019-03-22T22:45:47.878Z,15.40
2019-03-22T22:48:16.622Z,13.80
2019-03-22T22:50:45.226Z,13.77
2019-03-22T22:53:13.657Z,15.23
2019-03-22T22:55:42.242Z,14.80
2019-03-22T22:58:10.664Z,14.50
2019-03-22T23:00:39.514Z,14.43
2019-03-22T23:03:07.932Z,16.60
2019-03-22T23:05:36.340Z,14.00
2019-03-22T23:08:04.810Z,14.20
2019-03-22T23:10:33.247Z,14.40
2019-03-22T23:13:01.740Z,15.27
2019-03-22T23:15:30.175Z,15.07
2019-03-22T23:17:58.583Z,13.90
2019-03-22T23:20:26.958Z,16.73
2019-03-22T23:22:55.444Z,15.70
2019-03-22T23:25:24.005Z,15.93
2019-03-22T23:27:52.399Z,16.47
2019-03-22T23:30:20.811Z,15.97
2019-03-22T23:32:49.339Z,15.60
2019-03-22T23:35:17.899Z,16.17
2019-03-22T23:37:46.305Z,15.47
2019-03-22T23:40:14.660Z,15.80
2019-03-22T23:42:43.087Z,15.77
2019-03-22T23:45:11.587Z,16.77
2019-03-22T23:47:40.018Z,16.50
2019-03-22T23:50:08.477Z,16.50
2019-03-22T23:52:36.894Z,17.03
2019-03-22T23:55:05.391Z,17.33
2019-03-22T23:57:33.770Z,16.47
